Time;durP1;ratioP1;P1;durP2;ratioP2;P2;SDS_P1;SDS_P2;PMS_P1;PMS_P2;Temp;Humidity;BMP_temperature;BMP_pressure;BME280_temperature;BME280_humidity;BME280_pressure;Samples;Min_cycle;Max_cycle;Signal;HPM_P1;HPM_P2
2021/09/14 00:01:39;;;;;;;5.80;4.20;;;16.10;99.90;;;;;;4995697;28;20504;-74
2021/09/14 00:04:25;;;;;;;6.87;4.30;;;16.10;99.90;;;;;;5014796;28;21110;-75
2021/09/14 00:07:10;;;;;;;7.60;4.30;;;16.10;99.90;;;;;;5003899;28;20589;-76
2021/09/14 00:09:56;;;;;;;7.53;4.33;;;16.10;99.90;;;;;;5012853;28;20454;-75
2021/09/14 00:12:41;;;;;;;6.23;4.63;;;16.10;99.90;;;;;;5005150;28;20539;-75
2021/09/14 00:15:28;;;;;;;5.97;4.80;;;16.10;99.90;;;;;;5011462;28;20424;-76
2021/09/14 00:18:14;;;;;;;5.80;4.70;;;16.10;99.90;;;;;;5008210;28;20464;-76
2021/09/14 00:21:00;;;;;;;5.23;4.30;;;16.20;99.90;;;;;;5019602;28;20452;-74
2021/09/14 00:23:45;;;;;;;9.90;4.30;;;16.10;99.90;;;;;;5015446;28;20444;-76
2021/09/14 00:26:31;;;;;;;5.27;3.90;;;16.10;99.90;;;;;;5012012;28;20461;-75
2021/09/14 00:29:16;;;;;;;5.70;4.03;;;16.00;99.90;;;;;;5012026;28;20520;-75
2021/09/14 00:32:04;;;;;;;6.47;4.20;;;16.00;99.90;;;;;;5020412;28;20590;-75
2021/09/14 00:34:49;;;;;;;15.00;5.30;;;15.90;99.90;;;;;;5019247;28;20443;-76
2021/09/14 00:37:35;;;;;;;4.40;4.00;;;15.90;99.90;;;;;;5014840;28;20954;-75
2021/09/14 00:40:21;;;;;;;5.30;4.67;;;15.80;99.90;;;;;;5022415;28;20823;-75
2021/09/14 00:43:06;;;;;;;7.73;4.50;;;15.90;99.90;;;;;;5024035;28;20460;-75
2021/09/14 00:45:52;;;;;;;5.43;4.93;;;15.80;99.90;;;;;;5020141;28;20420;-75
2021/09/14 00:48:39;;;;;;;4.03;3.50;;;15.80;99.90;;;;;;5023571;28;20511;-75
2021/09/14 00:51:25;;;;;;;8.40;4.40;;;15.60;99.90;;;;;;5021861;28;20954;-76
2021/09/14 00:54:14;;;;;;;5.40;4.03;;;15.60;99.90;;;;;;5015873;28;20449;-75
2021/09/14 00:57:00;;;;;;;6.40;5.10;;;15.60;99.90;;;;;;5022547;28;20789;-76
2021/09/14 00:59:46;;;;;;;5.63;4.43;;;15.50;99.90;;;;;;5015997;28;20940;-76
2021/09/14 01:02:32;;;;;;;6.00;4.10;;;15.50;99.90;;;;;;5021638;28;20464;-76
2021/09/14 01:05:20;;;;;;;12.43;4.27;;;15.40;99.90;;;;;;5023351;28;20563;-76
2021/09/14 01:08:08;;;;;;;4.73;4.23;;;15.40;99.90;;;;;;5015480;28;20887;-75
2021/09/14 01:10:55;;;;;;;5.80;4.00;;;15.40;99.90;;;;;;5022507;28;20427;-76
2021/09/14 01:13:40;;;;;;;10.43;4.50;;;15.40;99.90;;;;;;5022182;28;20527;-76
2021/09/14 01:16:26;;;;;;;7.27;4.80;;;15.40;99.90;;;;;;5013517;28;21025;-76
2021/09/14 01:19:12;;;;;;;5.73;4.63;;;15.40;99.90;;;;;;5012395;28;20469;-75
2021/09/14 01:22:00;;;;;;;4.37;3.97;;;15.50;99.90;;;;;;5020086;28;20436;-75
2021/09/14 01:24:47;;;;;;;8.30;5.07;;;15.50;99.90;;;;;;5023288;28;20513;-75
2021/09/14 01:27:33;;;;;;;7.10;4.30;;;15.40;99.90;;;;;;5017599;28;20792;-76
2021/09/14 01:30:20;;;;;;;4.97;4.17;;;15.50;99.90;;;;;;5017100;28;20420;-76
2021/09/14 01:33:05;;;;;;;6.13;4.50;;;15.40;99.90;;;;;;5023956;28;20480;-76
2021/09/14 01:35:51;;;;;;;4.70;4.30;;;15.40;99.90;;;;;;5023560;28;20415;-76
2021/09/14 01:38:36;;;;;;;8.03;4.60;;;15.50;99.90;;;;;;5025729;28;20565;-76
2021/09/14 01:41:24;;;;;;;6.10;4.60;;;15.40;99.90;;;;;;5014570;28;20429;-75
2021/09/14 01:44:09;;;;;;;6.67;4.03;;;15.40;99.90;;;;;;5014807;28;20469;-76
2021/09/14 01:46:55;;;;;;;8.27;4.33;;;15.50;99.90;;;;;;5017812;28;20832;-76
2021/09/14 01:49:40;;;;;;;7.50;4.13;;;15.50;99.90;;;;;;5021643;28;20532;-76
2021/09/14 01:52:28;;;;;;;7.57;4.60;;;15.50;99.90;;;;;;5015940;28;20458;-76
2021/09/14 01:55:16;;;;;;;5.93;4.27;;;15.50;99.90;;;;;;5011223;28;20431;-76
2021/09/14 01:58:03;;;;;;;4.30;3.90;;;15.40;99.90;;;;;;5020290;28;20535;-76
2021/09/14 02:00:56;;;;;;;4.53;4.07;;;15.40;99.90;;;;;;5012288;28;20812;-75
2021/09/14 02:03:51;;;;;;;7.50;4.27;;;15.40;99.90;;;;;;5018207;28;20552;-76
2021/09/14 02:06:54;;;;;;;6.10;4.23;;;15.30;99.90;;;;;;5011791;28;20423;-76
2021/09/14 02:38:19;;;;;;;8.37;4.30;;;15.30;99.90;;;;;;5002575;28;20456;-76
2021/09/14 02:41:06;;;;;;;5.27;4.63;;;15.00;99.90;;;;;;4955695;28;20471;-76
2021/09/14 02:59:11;;;;;;;5.60;4.30;;;15.00;99.90;;;;;;5006091;28;20447;-76
2021/09/14 03:01:58;;;;;;;4.80;4.27;;;15.10;99.90;;;;;;5016063;28;21182;-76
2021/09/14 03:04:44;;;;;;;5.83;4.70;;;15.00;99.90;;;;;;5019621;28;20509;-75
2021/09/14 03:07:30;;;;;;;5.37;4.30;;;15.00;99.90;;;;;;5012174;28;20449;-76
2021/09/14 03:10:16;;;;;;;6.00;4.70;;;15.10;99.90;;;;;;5016191;28;20446;-76
2021/09/14 03:13:01;;;;;;;8.20;4.63;;;15.10;99.90;;;;;;5021893;28;20460;-74
2021/09/14 03:15:47;;;;;;;5.30;4.53;;;15.20;99.90;;;;;;5019998;28;20418;-74
2021/09/14 03:18:34;;;;;;;9.03;5.40;;;15.30;99.90;;;;;;5017969;28;20522;-74
2021/09/14 03:21:20;;;;;;;4.77;4.10;;;15.30;99.90;;;;;;5020865;28;20392;-74
2021/09/14 03:24:06;;;;;;;6.53;4.40;;;15.30;99.90;;;;;;5019675;28;20608;-74
2021/09/14 03:26:52;;;;;;;8.33;5.10;;;15.10;99.90;;;;;;5021515;28;20500;-73
2021/09/14 03:29:38;;;;;;;6.60;4.70;;;15.00;99.90;;;;;;5014408;28;20448;-73
2021/09/14 03:32:23;;;;;;;6.07;4.80;;;14.90;99.90;;;;;;5016416;28;20418;-73
2021/09/14 03:35:10;;;;;;;8.87;5.03;;;15.00;99.90;;;;;;5023498;28;20808;-72
2021/09/14 03:37:56;;;;;;;4.37;3.97;;;15.00;99.90;;;;;;5016534;28;20544;-72
2021/09/14 03:40:43;;;;;;;5.77;4.90;;;14.90;99.90;;;;;;5021810;28;20420;-72
2021/09/14 03:43:29;;;;;;;4.27;3.87;;;14.90;99.90;;;;;;5010097;28;20972;-71
2021/09/14 03:46:14;;;;;;;5.73;4.93;;;15.00;99.90;;;;;;5012739;28;20445;-71
2021/09/14 03:49:02;;;;;;;6.10;5.00;;;15.00;99.90;;;;;;5011783;28;20438;-72
2021/09/14 03:51:49;;;;;;;5.87;3.90;;;14.90;99.90;;;;;;5020086;28;21002;-72
2021/09/14 03:54:35;;;;;;;10.83;4.90;;;15.00;99.90;;;;;;5015493;28;20435;-73
2021/09/14 03:57:21;;;;;;;6.53;5.00;;;14.90;99.90;;;;;;5018072;28;20420;-73
2021/09/14 04:00:08;;;;;;;6.80;4.80;;;14.80;99.90;;;;;;5017211;28;20537;-73
2021/09/14 04:02:57;;;;;;;10.13;4.40;;;14.80;99.90;;;;;;5019160;28;21048;-73
2021/09/14 04:05:47;;;;;;;5.67;5.07;;;14.80;99.90;;;;;;5016974;28;20444;-73
2021/09/14 04:08:53;;;;;;;9.60;4.60;;;14.80;99.90;;;;;;5007542;28;20497;-74
2021/09/14 04:11:38;;;;;;;7.03;4.97;;;14.80;99.90;;;;;;5015263;28;20432;-74
2021/09/14 04:14:28;;;;;;;4.90;4.40;;;14.90;99.90;;;;;;5004946;28;20468;-75
2021/09/14 04:17:14;;;;;;;7.97;5.37;;;14.80;99.90;;;;;;5011865;28;20536;-75
2021/09/14 04:20:00;;;;;;;6.07;4.83;;;14.80;99.90;;;;;;5019082;28;20966;-75
2021/09/14 04:22:45;;;;;;;5.67;4.60;;;14.80;99.90;;;;;;5016634;28;20531;-74
2021/09/14 04:25:32;;;;;;;4.50;4.10;;;14.70;99.90;;;;;;5016644;28;20545;-74
2021/09/14 04:28:17;;;;;;;7.80;5.10;;;14.70;99.90;;;;;;4996710;28;20495;-74
2021/09/14 04:31:03;;;;;;;6.37;5.40;;;14.70;99.90;;;;;;5013403;28;20446;-74
2021/09/14 04:33:49;;;;;;;5.30;4.77;;;14.70;99.90;;;;;;5012641;28;20811;-74
2021/09/14 04:36:34;;;;;;;5.30;4.80;;;14.70;99.90;;;;;;5017785;28;20759;-74
2021/09/14 04:39:20;;;;;;;4.97;4.47;;;14.80;99.90;;;;;;5013244;28;20440;-74
2021/09/14 04:42:07;;;;;;;6.27;5.10;;;14.90;99.90;;;;;;5018729;28;20475;-74
2021/09/14 04:44:53;;;;;;;5.00;4.43;;;14.90;99.90;;;;;;5015425;28;20940;-74
2021/09/14 04:47:39;;;;;;;7.00;4.50;;;14.90;99.90;;;;;;5018345;28;20520;-74
2021/09/14 04:50:25;;;;;;;5.37;4.60;;;14.80;99.90;;;;;;5005001;28;20431;-74
2021/09/14 04:53:11;;;;;;;5.13;4.63;;;14.70;99.90;;;;;;5018108;28;20567;-74
2021/09/14 04:55:56;;;;;;;4.73;4.20;;;14.60;99.90;;;;;;5026956;28;20509;-75
2021/09/14 04:58:46;;;;;;;5.20;4.10;;;14.60;99.90;;;;;;5004222;28;20442;-74
2021/09/14 05:01:32;;;;;;;7.20;5.30;;;14.60;99.90;;;;;;5013494;28;20556;-74
2021/09/14 05:04:17;;;;;;;6.77;5.20;;;14.50;99.90;;;;;;5021293;28;20542;-74
2021/09/14 05:07:03;;;;;;;6.37;4.50;;;14.50;99.90;;;;;;5018490;28;20564;-74
2021/09/14 05:09:49;;;;;;;5.53;4.70;;;14.50;99.90;;;;;;5009381;28;20489;-74
2021/09/14 05:12:35;;;;;;;4.30;3.80;;;14.50;99.90;;;;;;5008444;28;20525;-74
2021/09/14 05:15:22;;;;;;;7.90;4.13;;;14.50;99.90;;;;;;5017272;28;20424;-74
2021/09/14 05:18:12;;;;;;;10.63;4.90;;;14.60;99.90;;;;;;5016607;28;20424;-74
2021/09/14 05:20:58;;;;;;;5.60;4.30;;;14.60;99.90;;;;;;5016530;28;20823;-74
2021/09/14 05:23:44;;;;;;;5.47;4.37;;;14.60;99.90;;;;;;5022054;28;20985;-74
2021/09/14 05:26:29;;;;;;;5.03;4.53;;;14.70;99.90;;;;;;5020151;28;20503;-74
2021/09/14 05:29:14;;;;;;;5.97;4.00;;;14.80;99.90;;;;;;5019295;28;20421;-74
2021/09/14 05:32:01;;;;;;;5.00;4.20;;;14.80;99.90;;;;;;5025523;28;20506;-74
2021/09/14 05:34:48;;;;;;;6.33;4.80;;;14.70;99.90;;;;;;5020684;28;20417;-74
2021/09/14 05:37:33;;;;;;;5.30;4.80;;;14.70;99.90;;;;;;5020060;28;20800;-74
2021/09/14 05:40:19;;;;;;;16.23;4.67;;;14.70;99.90;;;;;;5014506;28;20484;-74
2021/09/14 05:43:05;;;;;;;5.57;5.00;;;14.70;99.90;;;;;;5014835;28;20443;-74
2021/09/14 05:45:50;;;;;;;6.30;5.60;;;14.70;99.90;;;;;;5023403;28;20551;-74
2021/09/14 05:48:37;;;;;;;5.37;4.87;;;14.70;99.90;;;;;;5022476;28;20456;-74
2021/09/14 05:51:23;;;;;;;4.70;4.20;;;14.80;99.90;;;;;;5027925;28;20392;-74
2021/09/14 05:54:09;;;;;;;5.70;4.70;;;15.00;99.90;;;;;;5024678;28;20530;-74
2021/09/14 05:56:55;;;;;;;9.90;4.73;;;15.20;99.90;;;;;;5010791;28;20787;-74
2021/09/14 05:59:40;;;;;;;9.03;5.37;;;15.30;99.90;;;;;;5006181;28;20853;-74
2021/09/14 06:02:26;;;;;;;6.30;4.87;;;15.30;99.90;;;;;;5014156;28;20509;-74
2021/09/14 06:05:13;;;;;;;16.63;4.60;;;15.40;99.90;;;;;;5021230;28;20812;-74
2021/09/14 06:07:59;;;;;;;5.37;4.83;;;15.60;99.90;;;;;;5015161;28;20556;-74
2021/09/14 06:10:44;;;;;;;5.53;5.03;;;15.70;99.90;;;;;;5020038;28;20927;-74
2021/09/14 06:13:30;;;;;;;13.43;5.30;;;15.70;99.90;;;;;;5024505;28;20531;-74
2021/09/14 06:16:16;;;;;;;6.07;5.47;;;15.60;99.90;;;;;;5011483;28;20425;-74
2021/09/14 06:19:02;;;;;;;6.57;5.87;;;15.60;99.90;;;;;;5021608;28;20940;-74
2021/09/14 06:21:48;;;;;;;9.20;6.23;;;15.60;99.90;;;;;;5022491;28;20570;-74
2021/09/14 06:24:34;;;;;;;6.50;5.80;;;15.70;99.90;;;;;;5020657;28;20424;-74
2021/09/14 06:27:20;;;;;;;7.97;5.37;;;15.80;99.90;;;;;;5015276;28;20953;-74
2021/09/14 06:30:08;;;;;;;12.50;5.90;;;15.90;99.90;;;;;;5022196;28;20543;-74
2021/09/14 06:32:53;;;;;;;6.70;5.10;;;16.00;99.90;;;;;;5023898;28;20623;-74
2021/09/14 06:35:39;;;;;;;10.23;5.10;;;16.10;99.90;;;;;;5015620;28;20844;-74
2021/09/14 06:38:26;;;;;;;8.17;5.53;;;16.10;99.90;;;;;;5013830;28;20821;-74
2021/09/14 06:41:12;;;;;;;7.63;6.10;;;16.10;99.90;;;;;;5014863;28;20522;-74
2021/09/14 06:43:58;;;;;;;8.70;5.40;;;16.20;99.90;;;;;;5015753;28;20474;-74
2021/09/14 06:46:43;;;;;;;7.97;6.10;;;16.20;99.90;;;;;;5024747;28;20438;-74
2021/09/14 06:49:30;;;;;;;8.60;6.50;;;16.40;99.90;;;;;;5020395;28;21039;-74
2021/09/14 06:52:16;;;;;;;7.03;6.33;;;16.30;99.90;;;;;;5013162;28;20418;-74
2021/09/14 06:55:04;;;;;;;9.27;6.57;;;16.30;99.90;;;;;;5019837;28;20457;-74
2021/09/14 06:57:50;;;;;;;7.33;5.27;;;16.30;99.90;;;;;;5019023;28;20839;-74
2021/09/14 07:00:36;;;;;;;7.23;6.40;;;16.50;99.90;;;;;;5018291;28;20540;-74
2021/09/14 07:03:22;;;;;;;9.00;6.10;;;16.70;99.90;;;;;;5019425;28;20971;-74
2021/09/14 07:06:08;;;;;;;10.47;6.63;;;16.80;99.90;;;;;;5018199;28;20905;-75
2021/09/14 07:08:53;;;;;;;10.87;7.23;;;17.00;99.90;;;;;;5019678;28;20445;-74
2021/09/14 07:11:40;;;;;;;7.53;6.40;;;17.10;99.90;;;;;;5012998;28;20458;-74
2021/09/14 07:14:26;;;;;;;7.53;6.03;;;17.30;99.90;;;;;;5014082;28;20439;-74
2021/09/14 07:17:11;;;;;;;8.00;6.10;;;17.40;99.90;;;;;;5024233;28;20432;-74
2021/09/14 07:19:57;;;;;;;8.13;7.00;;;17.50;99.90;;;;;;5020060;28;20522;-74
2021/09/14 07:22:43;;;;;;;17.27;6.60;;;17.60;99.90;;;;;;5017702;28;20444;-74
2021/09/14 07:25:29;;;;;;;11.63;7.13;;;17.80;99.90;;;;;;5012160;28;20462;-74
2021/09/14 07:28:16;;;;;;;7.70;6.43;;;17.90;99.90;;;;;;5014021;28;20426;-74
2021/09/14 07:31:01;;;;;;;8.30;6.87;;;18.00;99.90;;;;;;5009273;28;20432;-74
2021/09/14 07:33:47;;;;;;;8.83;6.73;;;18.10;99.90;;;;;;5021135;28;20442;-75
2021/09/14 07:36:33;;;;;;;10.27;5.73;;;18.10;99.90;;;;;;5026725;28;20940;-74
2021/09/14 07:39:18;;;;;;;6.70;5.90;;;18.30;99.90;;;;;;5022129;28;20423;-74
2021/09/14 07:42:04;;;;;;;9.60;6.33;;;18.40;99.90;;;;;;5011415;28;20897;-74
2021/09/14 07:44:51;;;;;;;12.33;6.53;;;18.50;99.90;;;;;;5018310;28;20450;-74
2021/09/14 07:47:37;;;;;;;14.03;6.10;;;18.60;99.90;;;;;;5019484;28;20437;-74
2021/09/14 07:50:23;;;;;;;9.07;5.50;;;18.60;99.90;;;;;;5023319;28;20923;-74
2021/09/14 07:53:09;;;;;;;8.03;6.20;;;18.60;99.90;;;;;;5026548;28;20578;-74
2021/09/14 07:55:55;;;;;;;11.63;7.40;;;18.70;99.90;;;;;;5009638;28;20491;-74
2021/09/14 07:58:41;;;;;;;8.13;5.90;;;18.70;99.90;;;;;;5023658;28;20861;-74
2021/09/14 08:01:28;;;;;;;7.90;6.27;;;18.90;99.90;;;;;;5010260;28;20457;-74
2021/09/14 08:04:13;;;;;;;8.00;6.23;;;19.00;99.90;;;;;;5018725;28;20526;-74
2021/09/14 08:06:59;;;;;;;10.60;6.33;;;19.20;99.90;;;;;;5019601;28;20439;-74
2021/09/14 08:09:46;;;;;;;15.10;6.30;;;19.40;99.90;;;;;;5011082;28;20471;-74
2021/09/14 08:12:31;;;;;;;6.00;5.40;;;19.50;99.90;;;;;;5013437;28;20467;-74
2021/09/14 08:15:17;;;;;;;7.60;5.90;;;19.60;99.90;;;;;;5009876;28;20446;-74
2021/09/14 08:18:04;;;;;;;6.33;5.73;;;19.70;99.90;;;;;;5016939;28;20433;-74
2021/09/14 08:20:49;;;;;;;10.13;7.30;;;19.80;99.90;;;;;;5021461;28;20482;-74
2021/09/14 08:23:35;;;;;;;6.33;4.87;;;19.90;99.90;;;;;;5010603;28;20973;-74
2021/09/14 08:26:21;;;;;;;5.67;5.17;;;20.00;99.90;;;;;;5012720;28;20528;-74
2021/09/14 08:29:06;;;;;;;7.50;5.80;;;20.10;99.90;;;;;;5023090;28;20438;-74
2021/09/14 08:31:52;;;;;;;11.30;5.40;;;20.20;99.90;;;;;;5018851;28;20458;-74
2021/09/14 08:34:39;;;;;;;8.33;5.97;;;20.30;99.90;;;;;;5021866;28;20598;-74
2021/09/14 08:37:24;;;;;;;8.40;6.07;;;20.40;99.90;;;;;;5012319;28;20967;-74
2021/09/14 08:40:11;;;;;;;5.43;4.90;;;20.60;99.90;;;;;;5004055;28;20441;-74
2021/09/14 08:42:59;;;;;;;9.83;6.20;;;20.70;99.90;;;;;;5023598;28;21008;-74
2021/09/14 08:45:45;;;;;;;10.50;6.00;;;20.60;99.90;;;;;;5019595;28;20606;-74
2021/09/14 08:48:32;;;;;;;6.70;5.30;;;20.70;99.90;;;;;;5019150;28;21044;-74
2021/09/14 08:51:20;;;;;;;5.90;5.10;;;20.80;99.90;;;;;;5025308;28;20439;-74
2021/09/14 08:54:05;;;;;;;10.17;6.30;;;21.00;99.90;;;;;;5019417;28;20913;-74
2021/09/14 08:56:51;;;;;;;7.90;5.57;;;21.10;99.90;;;;;;5020004;28;20457;-74
2021/09/14 08:59:36;;;;;;;7.70;5.77;;;21.30;99.90;;;;;;5024677;28;20602;-74
2021/09/14 09:02:22;;;;;;;8.87;5.67;;;21.50;99.90;;;;;;5011660;28;20439;-74
2021/09/14 09:05:08;;;;;;;7.63;5.40;;;21.50;99.90;;;;;;5020336;28;20442;-74
2021/09/14 09:07:56;;;;;;;11.97;6.10;;;21.50;99.90;;;;;;5018661;28;20447;-74
2021/09/14 09:10:41;;;;;;;6.40;5.80;;;21.40;99.90;;;;;;5023036;28;20423;-74
2021/09/14 09:13:27;;;;;;;8.30;6.27;;;21.20;99.90;;;;;;5005655;28;20486;-74
2021/09/14 09:16:18;;;;;;;11.90;6.03;;;21.20;99.90;;;;;;5019603;28;20426;-74
2021/09/14 09:19:04;;;;;;;11.87;7.10;;;21.10;99.90;;;;;;5020254;28;20428;-74
2021/09/14 09:21:58;;;;;;;10.10;7.70;;;21.20;99.90;;;;;;5028088;28;20481;-74
2021/09/14 09:24:48;;;;;;;11.63;7.10;;;21.20;99.90;;;;;;5011524;28;20427;-74
2021/09/14 09:27:33;;;;;;;9.07;7.27;;;21.20;99.90;;;;;;5014701;28;20402;-73
2021/09/14 09:30:21;;;;;;;10.47;6.90;;;21.40;99.90;;;;;;5014665;28;20871;-74
2021/09/14 09:33:08;;;;;;;9.23;7.60;;;21.50;99.90;;;;;;5014287;28;20459;-74
2021/09/14 09:36:01;;;;;;;10.00;6.53;;;21.60;99.90;;;;;;5018032;28;20784;-74
2021/09/14 09:38:49;;;;;;;11.10;6.67;;;21.80;99.90;;;;;;5012384;28;20855;-74
2021/09/14 09:41:38;;;;;;;9.83;6.13;;;21.90;99.90;;;;;;5008137;28;20530;-73
2021/09/14 09:44:24;;;;;;;8.00;6.50;;;22.10;99.90;;;;;;5015098;28;21114;-73
2021/09/14 09:47:18;;;;;;;10.47;7.50;;;22.20;99.90;;;;;;5019850;28;20421;-73
2021/09/14 09:50:04;;;;;;;9.57;7.30;;;22.40;99.90;;;;;;5025137;28;20455;-73
2021/09/14 09:52:50;;;;;;;10.43;7.53;;;22.50;99.90;;;;;;5008235;28;20462;-73
2021/09/14 09:55:36;;;;;;;8.20;7.40;;;22.70;99.90;;;;;;5012983;28;20456;-73
2021/09/14 09:58:24;;;;;;;9.90;8.00;;;22.80;99.90;;;;;;5024529;28;20427;-73
2021/09/14 10:01:15;;;;;;;7.80;6.73;;;22.90;99.90;;;;;;4998100;28;20464;-73
2021/09/14 10:04:06;;;;;;;8.93;7.50;;;23.00;99.90;;;;;;4994464;28;20412;-73
2021/09/14 10:06:54;;;;;;;12.73;7.17;;;23.20;99.90;;;;;;5014153;28;20403;-73
2021/09/14 10:09:52;;;;;;;7.23;6.10;;;23.20;99.90;;;;;;5028935;28;20443;-73
2021/09/14 10:12:39;;;;;;;9.93;6.93;;;23.30;99.90;;;;;;5033556;28;20514;-73
2021/09/14 10:15:36;;;;;;;13.13;7.20;;;23.30;99.90;;;;;;5018836;28;20428;-73
2021/09/14 10:18:27;;;;;;;11.70;7.70;;;23.40;99.90;;;;;;5001721;28;20428;-73
2021/09/14 10:21:19;;;;;;;9.73;7.43;;;23.40;99.90;;;;;;5009320;28;20551;-73
2021/09/14 10:24:05;;;;;;;9.20;7.03;;;23.50;99.90;;;;;;5025608;28;20576;-73
2021/09/14 10:27:02;;;;;;;8.20;7.13;;;23.70;99.90;;;;;;5025111;28;20928;-73
2021/09/14 10:29:57;;;;;;;8.00;7.10;;;23.60;99.90;;;;;;5013787;28;20414;-74
2021/09/14 10:32:45;;;;;;;9.97;6.20;;;23.90;99.90;;;;;;5005736;28;20448;-73
2021/09/14 10:35:34;;;;;;;7.00;5.90;;;24.10;99.90;;;;;;5012180;28;20832;-73
2021/09/14 10:38:20;;;;;;;6.17;5.57;;;24.30;99.90;;;;;;5008115;28;20532;-73
2021/09/14 10:41:16;;;;;;;6.47;5.60;;;24.40;99.90;;;;;;5024533;28;20475;-73
2021/09/14 10:44:03;;;;;;;14.10;6.30;;;24.70;98.30;;;;;;5029671;28;20424;-73
2021/09/14 10:46:48;;;;;;;8.80;6.53;;;24.70;96.00;;;;;;5013298;28;20432;-73
2021/09/14 10:49:46;;;;;;;10.53;6.53;;;24.90;97.20;;;;;;5013231;28;20947;-73
2021/09/14 10:52:34;;;;;;;8.43;6.40;;;25.10;95.90;;;;;;5011803;28;20956;-73
2021/09/14 10:55:20;;;;;;;9.20;6.17;;;25.20;94.80;;;;;;5012873;28;20429;-73
2021/09/14 10:58:06;;;;;;;6.50;5.80;;;25.30;93.50;;;;;;5006556;28;20502;-73
2021/09/14 11:00:52;;;;;;;12.43;6.47;;;25.50;80.30;;;;;;4993506;28;20469;-73
2021/09/14 11:03:38;;;;;;;7.43;5.77;;;25.20;83.10;;;;;;4992856;28;20516;-73
2021/09/14 11:06:27;;;;;;;8.10;6.17;;;25.40;82.70;;;;;;5004072;28;20496;-73
2021/09/14 11:09:12;;;;;;;7.80;5.83;;;25.50;85.60;;;;;;5025336;28;20479;-73
2021/09/14 11:11:58;;;;;;;10.33;7.00;;;25.70;86.80;;;;;;5032078;28;20441;-73
2021/09/14 11:14:45;;;;;;;9.27;6.53;;;25.70;80.30;;;;;;5031543;28;20931;-73
2021/09/14 11:17:32;;;;;;;7.50;6.03;;;25.80;81.50;;;;;;5032442;28;20990;-73
2021/09/14 11:20:21;;;;;;;7.23;6.33;;;25.90;82.70;;;;;;5025692;28;20446;-73
2021/09/14 11:23:07;;;;;;;8.37;6.80;;;26.00;83.00;;;;;;5012433;28;20443;-73
2021/09/14 11:25:55;;;;;;;10.40;8.50;;;26.00;82.10;;;;;;5012520;28;20443;-73
2021/09/14 11:28:42;;;;;;;14.17;7.53;;;25.80;80.90;;;;;;5012542;28;20578;-73
2021/09/14 11:31:31;;;;;;;7.80;6.77;;;25.70;81.00;;;;;;5009554;28;20760;-73
2021/09/14 11:34:20;;;;;;;10.20;7.80;;;25.60;82.40;;;;;;5007893;28;20845;-76
2021/09/14 11:37:06;;;;;;;9.47;6.67;;;25.40;84.00;;;;;;5013205;28;20506;-75
2021/09/14 11:39:53;;;;;;;11.50;6.60;;;25.50;83.40;;;;;;5017894;28;20447;-73
2021/09/14 11:42:39;;;;;;;12.83;7.00;;;25.70;85.00;;;;;;5023635;28;20477;-74
2021/09/14 11:45:25;;;;;;;8.37;6.67;;;25.70;80.30;;;;;;5019502;28;20475;-74
2021/09/14 11:48:17;;;;;;;6.53;5.83;;;25.90;83.00;;;;;;5008555;28;20970;-74
2021/09/14 11:51:05;;;;;;;9.37;5.97;;;26.00;83.50;;;;;;5006170;28;20450;-74
2021/09/14 11:53:51;;;;;;;10.70;7.10;;;25.80;79.20;;;;;;5019603;28;20469;-74
2021/09/14 11:56:39;;;;;;;13.10;7.70;;;25.80;79.20;;;;;;5011212;28;20498;-74
2021/09/14 11:59:30;;;;;;;9.73;6.30;;;25.70;79.30;;;;;;5008958;28;20447;-74
2021/09/14 12:02:19;;;;;;;8.27;6.50;;;25.80;82.60;;;;;;5015304;28;20465;-75
2021/09/14 12:05:06;;;;;;;8.50;6.27;;;26.00;82.00;;;;;;5011668;28;20459;-74
2021/09/14 12:07:58;;;;;;;9.23;6.10;;;26.20;80.80;;;;;;5021756;28;20430;-74
2021/09/14 12:10:46;;;;;;;7.50;5.80;;;26.40;75.80;;;;;;5011279;28;20419;-74
2021/09/14 12:13:41;;;;;;;7.57;6.60;;;26.60;75.80;;;;;;5011347;28;20487;-74
2021/09/14 12:16:28;;;;;;;6.50;5.80;;;26.60;72.70;;;;;;5019718;28;20424;-74
2021/09/14 12:19:14;;;;;;;7.50;5.10;;;26.80;74.30;;;;;;5015600;28;20446;-73
2021/09/14 12:22:00;;;;;;;9.00;5.27;;;27.00;72.80;;;;;;5020527;28;20475;-73
2021/09/14 12:24:46;;;;;;;16.83;5.80;;;26.90;69.70;;;;;;5018731;28;20453;-72
2021/09/14 12:27:31;;;;;;;6.67;5.27;;;27.10;71.60;;;;;;5023031;28;20473;-73
2021/09/14 12:30:18;;;;;;;9.10;5.43;;;27.20;69.60;;;;;;5028373;28;20436;-73
2021/09/14 12:33:04;;;;;;;6.73;4.67;;;27.30;66.40;;;;;;5011509;28;20443;-73
2021/09/14 12:35:49;;;;;;;7.63;5.00;;;27.50;66.70;;;;;;5013510;28;20910;-73
2021/09/14 12:38:35;;;;;;;9.27;5.20;;;27.40;63.00;;;;;;5024242;28;21036;-73
2021/09/14 12:41:21;;;;;;;17.20;5.00;;;27.60;64.50;;;;;;5009248;28;20481;-73
2021/09/14 12:44:07;;;;;;;6.10;4.87;;;27.70;63.60;;;;;;5019726;28;20466;-73
2021/09/14 12:46:56;;;;;;;13.33;5.40;;;27.40;63.90;;;;;;5015496;28;20815;-73
2021/09/14 12:49:41;;;;;;;11.53;4.70;;;27.40;66.00;;;;;;5008397;28;20654;-73
2021/09/14 12:52:27;;;;;;;7.57;5.30;;;27.10;63.80;;;;;;5010231;28;20470;-73
2021/09/14 12:55:13;;;;;;;6.20;4.73;;;26.60;65.60;;;;;;5016709;28;20839;-73
2021/09/14 12:57:59;;;;;;;9.10;5.20;;;26.40;68.00;;;;;;5009460;28;20450;-73
2021/09/14 13:00:44;;;;;;;5.40;4.70;;;26.10;72.30;;;;;;5007449;28;20430;-73
2021/09/14 13:03:31;;;;;;;7.90;5.00;;;26.00;74.10;;;;;;5007586;28;20459;-73
2021/09/14 13:06:17;;;;;;;9.50;5.50;;;26.10;79.10;;;;;;5019620;28;20433;-73
2021/09/14 13:09:02;;;;;;;7.30;5.43;;;26.40;78.30;;;;;;5017134;28;20457;-73
2021/09/14 13:11:48;;;;;;;10.50;6.20;;;26.80;77.80;;;;;;5018428;28;20940;-73
2021/09/14 13:17:37;;;;;;;11.40;5.90;;;27.50;68.60;;;;;;5006904;28;20481;-73
2021/09/14 13:20:24;;;;;;;7.87;5.80;;;27.50;70.10;;;;;;5008148;28;20443;-73
2021/09/14 13:23:10;;;;;;;8.07;5.30;;;27.70;67.40;;;;;;5008585;28;20487;-73
2021/09/14 13:25:56;;;;;;;14.47;7.00;;;27.90;68.30;;;;;;5006645;28;20579;-73
2021/09/14 13:28:41;;;;;;;8.93;6.00;;;27.80;66.20;;;;;;5007417;28;20447;-73
2021/09/14 13:31:27;;;;;;;11.80;5.97;;;27.90;67.00;;;;;;5005133;28;20821;-73
2021/09/14 13:34:12;;;;;;;12.60;7.00;;;28.10;68.60;;;;;;5013791;28;20556;-73
2021/09/14 13:37:00;;;;;;;8.93;6.40;;;28.30;64.60;;;;;;5012293;28;20834;-73
2021/09/14 13:39:45;;;;;;;6.57;5.50;;;28.60;64.30;;;;;;5009501;28;20451;-73
2021/09/14 13:42:31;;;;;;;15.30;6.50;;;29.00;64.00;;;;;;5032819;28;21008;-73
2021/09/14 13:48:24;;;;;;;10.40;6.23;;;29.40;61.70;;;;;;5008661;28;20486;-73
2021/09/14 13:51:12;;;;;;;7.83;6.37;;;29.10;59.50;;;;;;5012040;28;20813;-73
2021/09/14 13:53:59;;;;;;;9.73;6.23;;;29.10;59.90;;;;;;5012058;28;20468;-74
2021/09/14 13:56:45;;;;;;;7.53;5.83;;;29.00;61.40;;;;;;5004651;28;20445;-73
2021/09/14 13:59:31;;;;;;;11.50;6.43;;;28.60;61.50;;;;;;5006436;28;20612;-73
2021/09/14 14:02:16;;;;;;;6.70;5.33;;;28.10;63.50;;;;;;5008449;28;20457;-73
2021/09/14 14:05:02;;;;;;;10.00;6.20;;;27.90;66.30;;;;;;5002566;28;20441;-73
2021/09/14 14:07:48;;;;;;;9.17;6.20;;;27.30;67.10;;;;;;5019959;28;20471;-73
2021/09/14 14:10:35;;;;;;;7.93;6.40;;;27.10;70.00;;;;;;5008037;28;20561;-73
2021/09/14 14:13:20;;;;;;;11.93;6.60;;;27.00;73.70;;;;;;5015161;28;20547;-73
2021/09/14 14:16:07;;;;;;;7.80;6.43;;;26.80;80.50;;;;;;5017023;28;20452;-73
2021/09/14 14:18:52;;;;;;;12.50;6.37;;;26.60;79.20;;;;;;5010154;28;21009;-73
2021/09/14 14:21:38;;;;;;;10.23;7.40;;;26.50;90.10;;;;;;5016513;28;20495;-73
2021/09/14 14:24:24;;;;;;;9.27;7.30;;;26.40;87.00;;;;;;5005011;28;20532;-73
2021/09/14 14:27:11;;;;;;;8.03;6.80;;;26.20;85.70;;;;;;5017991;28;20568;-73
2021/09/14 14:29:57;;;;;;;8.90;6.43;;;26.00;84.30;;;;;;5022760;28;20931;-73
2021/09/14 14:32:42;;;;;;;12.13;6.10;;;25.90;86.90;;;;;;5010945;28;20474;-73
2021/09/14 14:35:28;;;;;;;9.77;5.83;;;25.80;87.10;;;;;;5018929;28;20573;-74
2021/09/14 14:38:13;;;;;;;7.70;6.13;;;25.80;87.70;;;;;;5005009;28;20517;-73
2021/09/14 14:40:59;;;;;;;16.17;9.63;;;25.90;88.50;;;;;;5011313;28;20456;-73
2021/09/14 14:43:46;;;;;;;10.63;6.67;;;25.90;89.20;;;;;;5009872;28;20513;-73
2021/09/14 14:46:32;;;;;;;8.50;5.57;;;26.00;90.30;;;;;;5013303;28;20575;-73
2021/09/14 14:49:17;;;;;;;8.47;6.60;;;26.10;90.70;;;;;;5016040;28;20511;-72
2021/09/14 14:52:03;;;;;;;10.50;5.60;;;26.10;90.80;;;;;;5014156;28;20442;-73
2021/09/14 14:54:49;;;;;;;7.57;6.07;;;26.10;90.30;;;;;;5012920;28;20470;-73
2021/09/14 14:57:34;;;;;;;7.93;5.60;;;26.10;88.70;;;;;;5012752;28;21011;-72
2021/09/14 15:00:22;;;;;;;9.00;5.80;;;26.00;86.30;;;;;;5012078;28;20454;-73
2021/09/14 15:03:07;;;;;;;11.50;6.20;;;26.20;88.40;;;;;;5016302;28;20593;-73
2021/09/14 15:05:53;;;;;;;10.13;6.40;;;26.40;83.00;;;;;;5014448;28;20450;-74
2021/09/14 15:08:38;;;;;;;11.20;5.50;;;26.60;82.90;;;;;;5012336;28;20421;-73
2021/09/14 15:11:24;;;;;;;12.23;5.43;;;27.00;82.10;;;;;;5011675;28;20426;-73
2021/09/14 15:14:09;;;;;;;6.27;5.50;;;27.20;76.80;;;;;;5013927;28;20481;-72
2021/09/14 15:16:57;;;;;;;10.03;5.37;;;27.40;77.40;;;;;;5011426;28;20509;-72